createdAt,value
2022-08-30T00:00:13.049Z,99161.13
2022-08-30T00:01:47.578Z,99166.25
2022-08-30T00:03:21.982Z,99166.25
2022-08-30T00:04:55.386Z,99162.44
2022-08-30T00:06:30.902Z,99154.91
2022-08-30T00:08:04.599Z,99164.13
2022-08-30T00:09:36.759Z,99173.09
2022-08-30T00:11:13.766Z,99167.69
2022-08-30T00:12:49.127Z,99167.69
2022-08-30T00:14:22.770Z,99162.28
2022-08-30T00:15:56.000Z,99166.25
2022-08-30T00:17:30.646Z,99151.75
2022-08-30T00:19:04.101Z,99167.06
2022-08-30T00:20:37.997Z,99167.31
2022-08-30T00:22:11.282Z,99163.19
2022-08-30T00:23:43.538Z,99163.75
2022-08-30T00:25:17.590Z,99165.97
2022-08-30T00:26:50.885Z,99167.50
2022-08-30T00:28:24.192Z,99173.44
2022-08-30T00:29:57.822Z,99175.88
2022-08-30T00:31:31.895Z,99177.44
2022-08-30T00:33:06.644Z,99179.28
2022-08-30T00:34:39.848Z,99175.41
2022-08-30T00:36:13.127Z,99179.09
2022-08-30T00:37:46.618Z,99180.81
2022-08-30T00:39:19.823Z,99184.34
2022-08-30T00:40:53.841Z,99179.97
2022-08-30T00:42:27.767Z,99183.06
2022-08-30T00:44:01.113Z,99181.56
2022-08-30T00:45:38.535Z,99193.63
2022-08-30T00:47:12.019Z,99196.56
2022-08-30T00:48:50.797Z,99192.31
2022-08-30T00:50:28.370Z,99186.50
2022-08-30T00:52:02.289Z,99194.56
2022-08-30T00:53:38.875Z,99198.75
2022-08-30T00:55:14.275Z,99197.53
2022-08-30T00:56:49.726Z,99203.75
2022-08-30T00:58:32.299Z,99198.59
2022-08-30T01:00:08.241Z,99200.56
2022-08-30T01:01:42.949Z,99204.78
2022-08-30T01:03:17.037Z,99191.94
2022-08-30T01:04:53.262Z,99209.59
2022-08-30T01:06:32.532Z,99202.47
2022-08-30T01:08:06.097Z,99207.84
2022-08-30T01:09:39.808Z,99199.53
2022-08-30T01:11:14.976Z,99202.81
2022-08-30T01:12:48.894Z,99198.41
2022-08-30T01:14:22.218Z,99192.03
2022-08-30T01:16:01.192Z,99202.41
2022-08-30T01:17:36.038Z,99194.31
2022-08-30T01:19:21.424Z,99194.06
2022-08-30T01:21:03.951Z,99189.72
2022-08-30T01:22:44.474Z,99198.88
2022-08-30T01:24:22.783Z,99206.34
2022-08-30T01:25:56.553Z,99209.16
2022-08-30T01:27:30.004Z,99202.34
2022-08-30T01:29:07.258Z,99212.41
2022-08-30T01:30:43.113Z,99205.09
2022-08-30T01:32:21.238Z,99198.25
2022-08-30T01:33:54.968Z,99200.81
2022-08-30T01:35:36.301Z,99198.97
2022-08-30T01:37:09.550Z,99199.94
2022-08-30T01:38:47.464Z,99201.50
2022-08-30T01:40:22.852Z,99189.16
2022-08-30T01:41:56.232Z,99189.44
2022-08-30T01:43:29.756Z,99187.47
2022-08-30T01:45:03.671Z,99182.34
2022-08-30T01:46:40.574Z,99175.69
2022-08-30T01:48:13.044Z,99186.03
2022-08-30T01:49:46.926Z,99186.53
2022-08-30T01:51:20.110Z,99183.38
2022-08-30T01:52:53.323Z,99180.44
2022-08-30T01:54:27.316Z,99183.13
2022-08-30T01:56:08.728Z,99183.84
2022-08-30T01:57:41.906Z,99174.06
2022-08-30T01:59:15.052Z,99182.25
2022-08-30T02:00:47.510Z,99173.47
2022-08-30T02:02:24.578Z,99177.41
2022-08-30T02:03:58.508Z,99180.56
2022-08-30T02:05:31.303Z,99183.38
2022-08-30T02:07:05.757Z,99181.94
2022-08-30T02:08:40.331Z,99177.53
2022-08-30T02:10:15.093Z,99190.00
2022-08-30T02:11:49.949Z,99187.56
2022-08-30T02:13:23.714Z,99184.28
2022-08-30T02:14:56.920Z,99184.41
2022-08-30T02:16:30.172Z,99177.03
2022-08-30T02:18:03.411Z,99191.50
2022-08-30T02:19:36.874Z,99181.59
2022-08-30T02:21:10.490Z,99179.25
2022-08-30T02:22:47.641Z,99181.19
2022-08-30T02:24:21.678Z,99181.47
2022-08-30T02:25:56.285Z,99181.19
2022-08-30T02:27:29.931Z,99179.50
2022-08-30T02:29:05.291Z,99162.66
2022-08-30T02:30:37.678Z,99185.66
2022-08-30T02:32:11.162Z,99166.84
2022-08-30T02:33:44.510Z,99184.44
2022-08-30T02:35:17.938Z,99173.94
2022-08-30T02:36:51.176Z,99175.63
2022-08-30T02:38:25.095Z,99173.69
2022-08-30T02:39:57.363Z,99168.88
2022-08-30T02:41:30.594Z,99175.00
2022-08-30T02:43:05.216Z,99172.56
2022-08-30T02:44:38.623Z,99168.28
2022-08-30T02:46:12.015Z,99178.53
2022-08-30T02:47:47.074Z,99171.56
2022-08-30T02:49:34.967Z,99170.47
2022-08-30T02:51:11.527Z,99171.44
2022-08-30T02:52:45.219Z,99174.13
2022-08-30T02:54:21.479Z,99178.53
2022-08-30T02:55:54.637Z,99179.81
2022-08-30T02:57:28.129Z,99181.16
2022-08-30T02:59:02.694Z,99191.09
2022-08-30T03:00:36.279Z,99177.63
2022-08-30T03:02:09.545Z,99179.69
2022-08-30T03:03:44.342Z,99182.75
2022-08-30T03:05:18.790Z,99184.97
2022-08-30T03:06:52.154Z,99190.88
2022-08-30T03:08:25.575Z,99190.13
2022-08-30T03:09:59.021Z,99187.19
2022-08-30T03:11:33.059Z,99189.16
2022-08-30T03:13:07.554Z,99188.91
2022-08-30T03:14:42.167Z,99192.56
2022-08-30T03:16:16.358Z,99190.00
2022-08-30T03:17:49.602Z,99192.34
2022-08-30T03:19:23.215Z,99198.78
2022-08-30T03:20:55.365Z,99196.25
2022-08-30T03:22:28.910Z,99190.88
2022-08-30T03:24:02.191Z,99197.97
2022-08-30T03:25:35.563Z,99201.13
2022-08-30T03:27:09.133Z,99194.03
2022-08-30T03:28:43.511Z,99196.59
2022-08-30T03:30:18.921Z,99201.88
2022-08-30T03:31:54.925Z,99206.50
2022-08-30T03:33:28.519Z,99217.38
2022-08-30T03:35:01.277Z,99208.72
2022-08-30T03:36:34.810Z,99215.81
2022-08-30T03:38:08.005Z,99213.34
2022-08-30T03:39:41.849Z,99210.91
2022-08-30T03:41:16.949Z,99210.31
2022-08-30T03:42:50.262Z,99215.69
2022-08-30T03:44:23.461Z,99220.19
2022-08-30T03:45:57.217Z,99213.13
2022-08-30T03:47:30.651Z,99214.81
2022-08-30T03:49:03.863Z,99221.94
2022-08-30T03:50:37.622Z,99220.47
2022-08-30T03:52:10.147Z,99226.09
2022-08-30T03:53:43.592Z,99223.75
2022-08-30T03:55:16.914Z,99219.94
2022-08-30T03:56:50.141Z,99228.88
2022-08-30T03:58:23.394Z,99228.00
2022-08-30T03:59:57.026Z,99228.00
2022-08-30T04:01:31.705Z,99217.34
2022-08-30T04:03:05.488Z,99224.13
2022-08-30T04:04:38.680Z,99227.19
2022-08-30T04:06:12.544Z,99229.25
2022-08-30T04:07:46.009Z,99236.72
2022-08-30T04:09:19.651Z,99227.31
2022-08-30T04:10:53.900Z,99224.34
2022-08-30T04:12:27.499Z,99236.56
2022-08-30T04:14:00.649Z,99222.41
2022-08-30T04:15:33.848Z,99230.47
2022-08-30T04:17:08.409Z,99233.88
2022-08-30T04:18:41.800Z,99230.22
2022-08-30T04:20:14.107Z,99232.38
2022-08-30T04:21:47.291Z,99236.53
2022-08-30T04:23:20.710Z,99232.88
2022-08-30T04:24:54.222Z,99230.66
2022-08-30T04:26:29.329Z,99233.81
2022-08-30T04:28:02.974Z,99239.19
2022-08-30T04:29:36.686Z,99227.25
2022-08-30T04:31:12.046Z,99237.47
2022-08-30T04:32:47.209Z,99232.44
2022-08-30T04:34:20.544Z,99239.31
2022-08-30T04:35:53.905Z,99240.13
2022-08-30T04:37:27.144Z,99236.44
2022-08-30T04:39:00.313Z,99237.31
2022-08-30T04:40:33.633Z,99236.19
2022-08-30T04:42:07.026Z,99244.63
2022-08-30T04:43:40.227Z,99236.91
2022-08-30T04:45:15.973Z,99240.38
2022-08-30T04:46:48.238Z,99237.63
2022-08-30T04:48:23.735Z,99238.94
2022-08-30T04:49:57.480Z,99236.38
2022-08-30T04:51:30.747Z,99233.06
2022-08-30T04:53:03.959Z,99235.63
2022-08-30T04:54:37.171Z,99242.28
2022-08-30T04:56:12.034Z,99247.75
2022-08-30T04:57:45.195Z,99248.41
2022-08-30T04:59:18.412Z,99245.31
2022-08-30T05:00:51.660Z,99234.47
2022-08-30T05:02:25.745Z,99243.28
2022-08-30T05:04:00.855Z,99238.53
2022-08-30T05:05:42.637Z,99241.72
2022-08-30T05:07:15.826Z,99228.31
2022-08-30T05:08:49.229Z,99226.97
2022-08-30T05:10:22.703Z,99237.69
2022-08-30T05:11:55.922Z,99232.66
2022-08-30T05:13:35.638Z,99237.28
2022-08-30T05:15:11.730Z,99236.50
2022-08-30T05:16:45.642Z,99239.41
2022-08-30T05:18:19.190Z,99218.81
2022-08-30T05:19:53.768Z,99236.59
2022-08-30T05:21:29.086Z,99231.97
2022-08-30T05:23:02.891Z,99229.97
2022-08-30T05:24:36.687Z,99228.78
2022-08-30T05:26:11.921Z,99229.53
2022-08-30T05:27:45.397Z,99232.31
2022-08-30T05:29:18.656Z,99224.94
2022-08-30T05:30:51.924Z,99234.84
2022-08-30T05:32:25.626Z,99232.50
2022-08-30T05:33:59.571Z,99229.47
2022-08-30T05:35:34.178Z,99228.91
2022-08-30T05:37:07.430Z,99220.91
2022-08-30T05:38:41.004Z,99226.00
2022-08-30T05:40:17.661Z,99224.31
2022-08-30T05:41:50.890Z,99215.47
2022-08-30T05:43:26.888Z,99224.81
2022-08-30T05:45:03.867Z,99223.28
2022-08-30T05:46:38.202Z,99218.84
2022-08-30T05:48:12.907Z,99229.09
2022-08-30T05:49:46.378Z,99221.28
2022-08-30T05:51:23.371Z,99217.13
2022-08-30T05:52:57.099Z,99214.75
2022-08-30T05:54:30.403Z,99219.78
2022-08-30T05:56:04.873Z,99210.41
2022-08-30T05:57:40.471Z,99223.84
2022-08-30T05:59:15.079Z,99213.03
2022-08-30T06:00:48.301Z,99212.34
2022-08-30T06:02:21.568Z,99225.84
2022-08-30T06:03:57.597Z,99218.59
2022-08-30T06:05:33.545Z,99222.78
2022-08-30T06:07:12.923Z,99206.34
2022-08-30T06:08:49.063Z,99212.69
2022-08-30T06:10:22.303Z,99220.03
2022-08-30T06:11:55.783Z,99213.31
2022-08-30T06:13:29.024Z,99209.88
2022-08-30T06:15:02.437Z,99212.56
2022-08-30T06:16:38.810Z,99217.03
2022-08-30T06:18:12.755Z,99214.13
2022-08-30T06:19:46.077Z,99206.88
2022-08-30T06:21:19.579Z,99206.19
2022-08-30T06:22:54.182Z,99208.50
2022-08-30T06:24:41.035Z,99209.81
2022-08-30T06:26:14.943Z,99211.88
2022-08-30T06:27:50.434Z,99213.31
2022-08-30T06:29:25.361Z,99211.81
2022-08-30T06:30:58.849Z,99210.22
2022-08-30T06:32:32.116Z,99211.91
2022-08-30T06:34:05.460Z,99214.94
2022-08-30T06:35:52.394Z,99212.56
2022-08-30T06:37:33.174Z,99222.28
2022-08-30T06:39:08.598Z,99218.34
2022-08-30T06:40:41.897Z,99224.56
2022-08-30T06:42:15.108Z,99229.75
2022-08-30T06:43:49.352Z,99224.88
2022-08-30T06:45:23.053Z,99223.19
2022-08-30T06:46:56.314Z,99220.53
2022-08-30T06:48:29.533Z,99216.75
2022-08-30T06:50:02.999Z,99221.41
2022-08-30T06:51:37.990Z,99220.16
2022-08-30T06:53:12.958Z,99224.34
2022-08-30T06:54:47.560Z,99223.28
2022-08-30T06:56:22.225Z,99227.13
2022-08-30T06:57:55.523Z,99229.59
2022-08-30T06:59:29.253Z,99223.16
2022-08-30T07:01:02.772Z,99233.88
2022-08-30T07:02:38.013Z,99232.84
2022-08-30T07:04:11.280Z,99235.63
2022-08-30T07:05:44.475Z,99228.16
2022-08-30T07:07:17.802Z,99233.88
2022-08-30T07:08:56.317Z,99229.22
2022-08-30T07:10:31.446Z,99232.22
2022-08-30T07:12:06.707Z,99231.44
2022-08-30T07:13:40.649Z,99235.75
2022-08-30T07:15:14.927Z,99232.22
2022-08-30T07:16:51.134Z,99228.75
2022-08-30T07:18:42.791Z,99233.31
2022-08-30T07:20:16.707Z,99222.22
2022-08-30T07:21:50.999Z,99219.91
2022-08-30T07:23:23.717Z,99229.56
2022-08-30T07:24:57.086Z,99230.25
2022-08-30T07:26:36.208Z,99233.34
2022-08-30T07:28:10.443Z,99237.91
2022-08-30T07:29:43.686Z,99236.84
2022-08-30T07:31:19.738Z,99237.63
2022-08-30T07:32:53.515Z,99229.97
2022-08-30T07:34:27.566Z,99234.75
2022-08-30T07:36:01.444Z,99233.50
2022-08-30T07:37:35.542Z,99228.06
2022-08-30T07:39:09.899Z,99220.84
2022-08-30T07:40:43.439Z,99230.16
2022-08-30T07:42:18.334Z,99239.63
2022-08-30T07:43:51.865Z,99232.81
2022-08-30T07:45:25.177Z,99237.66
2022-08-30T07:46:58.395Z,99236.41
2022-08-30T07:48:31.557Z,99232.63
2022-08-30T07:50:05.882Z,99238.13
2022-08-30T07:51:40.022Z,99232.53
2022-08-30T07:53:13.770Z,99232.06
2022-08-30T07:54:46.962Z,99229.53
2022-08-30T07:56:26.842Z,99232.66
2022-08-30T07:59:36.323Z,99231.28
2022-08-30T08:01:11.054Z,99231.53
2022-08-30T08:02:44.381Z,99221.34
2022-08-30T08:04:17.723Z,99222.03
2022-08-30T08:05:53.194Z,99229.69
2022-08-30T08:07:26.459Z,99224.59
2022-08-30T08:09:02.352Z,99228.31
2022-08-30T08:10:38.133Z,99226.81
2022-08-30T08:12:11.519Z,99233.00
2022-08-30T08:13:53.691Z,99216.09
2022-08-30T08:15:28.121Z,99228.97
2022-08-30T08:17:01.643Z,99235.38
2022-08-30T08:18:35.101Z,99236.09
2022-08-30T08:20:09.764Z,99224.97
2022-08-30T08:21:43.084Z,99234.66
2022-08-30T08:23:17.099Z,99225.03
2022-08-30T08:24:50.920Z,99232.16
2022-08-30T08:26:24.142Z,99231.28
2022-08-30T08:27:57.576Z,99225.00
2022-08-30T08:29:32.524Z,99228.34
2022-08-30T08:31:14.454Z,99229.56
2022-08-30T08:32:48.676Z,99223.69
2022-08-30T08:34:23.671Z,99223.28
2022-08-30T08:35:57.587Z,99232.38
2022-08-30T08:37:30.820Z,99220.69
2022-08-30T08:39:06.029Z,99228.75
2022-08-30T08:40:49.729Z,99228.31
2022-08-30T08:42:31.942Z,99222.19
2022-08-30T08:44:14.433Z,99225.31
2022-08-30T08:45:56.393Z,99224.75
2022-08-30T08:47:39.155Z,99228.13
2022-08-30T08:49:13.042Z,99223.63
2022-08-30T08:51:02.770Z,99222.22
2022-08-30T08:53:06.048Z,99218.41
2022-08-30T08:54:48.616Z,99228.28
2022-08-30T08:56:23.504Z,99216.00
2022-08-30T08:57:57.731Z,99226.28
2022-08-30T08:59:31.177Z,99218.50
2022-08-30T09:01:07.859Z,99220.19
2022-08-30T09:02:44.569Z,99212.31
2022-08-30T09:04:21.522Z,99212.78
2022-08-30T09:05:55.774Z,99212.28
2022-08-30T09:07:34.095Z,99216.50
2022-08-30T09:09:07.368Z,99210.53
2022-08-30T09:10:50.477Z,99214.06
2022-08-30T09:12:24.360Z,99216.09
2022-08-30T09:13:57.914Z,99214.69
2022-08-30T09:15:34.443Z,99207.28
2022-08-30T09:17:11.496Z,99206.81
2022-08-30T09:20:43.408Z,99207.19
2022-08-30T09:22:32.066Z,99203.81
2022-08-30T09:24:08.889Z,99200.91
2022-08-30T09:25:52.861Z,99201.22
2022-08-30T09:27:33.279Z,99191.31
2022-08-30T09:29:17.365Z,99193.16
2022-08-30T09:31:03.992Z,99206.28
2022-08-30T09:32:42.414Z,99189.38
2022-08-30T09:34:19.295Z,99200.47
2022-08-30T09:35:54.081Z,99191.59
2022-08-30T09:37:32.690Z,99200.13
2022-08-30T09:39:15.279Z,99198.34
2022-08-30T09:40:50.993Z,99186.94
2022-08-30T09:42:26.738Z,99188.00
2022-08-30T09:44:10.112Z,99184.41
2022-08-30T09:45:46.244Z,99185.28
2022-08-30T09:47:24.239Z,99181.03
2022-08-30T09:48:58.968Z,99178.03
2022-08-30T09:50:37.120Z,99177.97
2022-08-30T09:52:35.624Z,99172.03
2022-08-30T09:54:19.839Z,99171.13
2022-08-30T09:55:59.926Z,99171.53
2022-08-30T09:57:40.249Z,99172.75
2022-08-30T09:59:29.546Z,99173.16
2022-08-30T10:01:10.834Z,99170.72
2022-08-30T10:03:00.416Z,99162.25
2022-08-30T10:04:41.985Z,99159.53
2022-08-30T10:06:25.414Z,99163.13
2022-08-30T10:08:13.081Z,99177.19
2022-08-30T10:09:54.911Z,99170.03
2022-08-30T10:11:34.331Z,99171.50
2022-08-30T10:13:39.434Z,99160.00
2022-08-30T10:15:20.592Z,99173.94
2022-08-30T10:17:01.951Z,99159.34
2022-08-30T10:18:43.273Z,99163.75
2022-08-30T10:20:25.206Z,99165.31
2022-08-30T10:22:03.634Z,99161.06
2022-08-30T10:23:42.629Z,99159.84
2022-08-30T10:25:22.548Z,99155.38
2022-08-30T10:27:01.083Z,99147.78
2022-08-30T10:28:43.685Z,99147.78
2022-08-30T10:30:20.527Z,99138.91
2022-08-30T10:31:58.127Z,99146.72
2022-08-30T10:33:36.823Z,99145.75
2022-08-30T10:35:17.500Z,99149.44
2022-08-30T10:36:57.713Z,99146.88
2022-08-30T10:38:35.261Z,99140.06
2022-08-30T10:40:33.440Z,99148.69
2022-08-30T10:42:11.484Z,99148.69
2022-08-30T10:43:56.152Z,99151.91
2022-08-30T10:45:32.017Z,99151.91
2022-08-30T10:47:23.015Z,99145.75
2022-08-30T10:48:59.450Z,99153.66
2022-08-30T10:50:41.377Z,99154.03
2022-08-30T10:52:25.557Z,99150.94
2022-08-30T10:54:09.353Z,99150.53
2022-08-30T10:55:50.340Z,99147.44
2022-08-30T10:57:23.710Z,99151.13
2022-08-30T10:58:59.276Z,99147.16
2022-08-30T11:00:42.595Z,99126.88
2022-08-30T11:02:39.939Z,99145.81
2022-08-30T11:04:45.701Z,99144.78
2022-08-30T11:06:26.389Z,99138.09
2022-08-30T11:08:21.996Z,99137.44
2022-08-30T11:10:15.498Z,99129.31
2022-08-30T11:12:03.579Z,99137.09
2022-08-30T11:13:41.376Z,99128.88
2022-08-30T11:15:18.298Z,99128.31
2022-08-30T11:16:57.604Z,99124.34
2022-08-30T11:18:33.873Z,99120.91
2022-08-30T11:20:24.585Z,99128.91
2022-08-30T11:22:13.802Z,99124.72
2022-08-30T11:24:06.647Z,99117.41
2022-08-30T11:25:56.784Z,99122.34
2022-08-30T11:27:51.726Z,99113.28
2022-08-30T11:29:41.265Z,99112.69
2022-08-30T11:31:36.143Z,99106.66
2022-08-30T11:33:43.563Z,99105.38
2022-08-30T11:35:45.956Z,99116.75
2022-08-30T11:37:36.125Z,99109.63
2022-08-30T11:39:13.026Z,99105.41
2022-08-30T11:40:53.777Z,99113.94
2022-08-30T11:42:35.039Z,99097.47
2022-08-30T11:44:27.872Z,99090.81
2022-08-30T11:46:16.876Z,99098.91
2022-08-30T11:47:52.616Z,99095.78
2022-08-30T11:49:46.115Z,99107.91
2022-08-30T11:52:08.479Z,99107.09
2022-08-30T11:53:51.189Z,99100.78
2022-08-30T11:55:41.519Z,99094.69
2022-08-30T11:57:26.453Z,99096.75
2022-08-30T11:59:06.085Z,99101.75
2022-08-30T12:00:52.670Z,99096.56
2022-08-30T12:02:48.837Z,99089.94
2022-08-30T12:04:37.476Z,99085.00
2022-08-30T12:06:12.357Z,99083.88
2022-08-30T12:08:01.090Z,99086.88
2022-08-30T12:10:06.571Z,99084.38
2022-08-30T12:12:09.314Z,99087.81
2022-08-30T12:13:56.292Z,99090.81
2022-08-30T12:15:58.977Z,99087.22
2022-08-30T12:18:15.220Z,99084.19
2022-08-30T12:19:50.815Z,99092.66
2022-08-30T12:21:28.597Z,99091.75
2022-08-30T12:23:20.312Z,99082.91
2022-08-30T12:24:55.882Z,99082.19
2022-08-30T12:26:36.526Z,99080.66
2022-08-30T12:28:17.440Z,99083.66
2022-08-30T12:29:52.941Z,99085.22
2022-08-30T12:31:28.052Z,99077.66
2022-08-30T12:33:01.867Z,99073.06
2022-08-30T12:34:38.337Z,99073.88
2022-08-30T12:36:18.620Z,99065.00
2022-08-30T12:38:05.642Z,99066.69
2022-08-30T12:39:41.029Z,99069.53
2022-08-30T12:41:22.671Z,99072.75
2022-08-30T12:42:58.444Z,99064.34
2022-08-30T12:44:33.536Z,99070.50
2022-08-30T12:46:11.601Z,99064.09
2022-08-30T12:47:48.799Z,99065.41
2022-08-30T12:49:25.170Z,99067.94
2022-08-30T12:51:01.462Z,99058.25
2022-08-30T12:52:38.826Z,99065.28
2022-08-30T12:54:20.678Z,99062.47
2022-08-30T12:55:59.582Z,99048.06
2022-08-30T12:57:41.650Z,99049.13
2022-08-30T13:00:02.675Z,99054.66
2022-08-30T13:01:37.636Z,99051.25
2022-08-30T13:03:30.948Z,99051.34
2022-08-30T13:05:34.928Z,99046.25
2022-08-30T13:07:08.783Z,99053.16
2022-08-30T13:08:53.695Z,99047.31
2022-08-30T13:10:26.956Z,99045.97
2022-08-30T13:12:01.993Z,99039.19
2022-08-30T13:13:44.514Z,99041.56
2022-08-30T13:15:20.414Z,99040.31
2022-08-30T13:17:07.871Z,99027.16
2022-08-30T13:18:41.666Z,99028.56
2022-08-30T13:20:28.162Z,99034.13
2022-08-30T13:22:02.528Z,99029.03
2022-08-30T13:23:35.740Z,99027.97
2022-08-30T13:25:11.103Z,99030.13
2022-08-30T13:26:45.368Z,99030.63
2022-08-30T13:28:18.777Z,99020.88
2022-08-30T13:29:52.273Z,99017.31
2022-08-30T13:31:25.970Z,99023.03
2022-08-30T13:33:02.314Z,99020.13
2022-08-30T13:34:36.372Z,99020.13
2022-08-30T13:36:09.655Z,99013.88
2022-08-30T13:37:49.888Z,99014.50
2022-08-30T13:39:24.850Z,99002.84
2022-08-30T13:40:58.542Z,99002.84
2022-08-30T13:42:32.231Z,99006.88
2022-08-30T13:44:11.341Z,99006.63
2022-08-30T13:45:45.604Z,98995.69
2022-08-30T13:47:35.860Z,99008.75
2022-08-30T13:51:16.691Z,99001.94
2022-08-30T13:52:51.543Z,98995.06
2022-08-30T13:54:25.778Z,98988.53
2022-08-30T13:56:01.377Z,98990.94
2022-08-30T13:57:54.371Z,98998.19
2022-08-30T13:59:34.157Z,98974.09
2022-08-30T14:01:08.036Z,98970.00
2022-08-30T14:02:45.470Z,98986.72
2022-08-30T14:04:22.902Z,98980.28
2022-08-30T14:06:29.159Z,98987.38
2022-08-30T14:07:52.401Z,98978.88
2022-08-30T14:09:24.819Z,98983.22
2022-08-30T14:10:59.183Z,98979.81
2022-08-30T14:14:41.442Z,98978.25
2022-08-30T14:16:31.840Z,98978.75
2022-08-30T14:18:05.859Z,98992.06
2022-08-30T14:19:41.288Z,98984.47
2022-08-30T14:21:14.621Z,98980.97
2022-08-30T14:22:48.135Z,98987.69
2022-08-30T14:24:22.093Z,98986.84
2022-08-30T14:25:56.883Z,98990.22
2022-08-30T14:27:30.676Z,98988.41
2022-08-30T14:29:08.867Z,98988.41
2022-08-30T14:30:42.713Z,98991.13
2022-08-30T14:32:16.371Z,98991.53
2022-08-30T14:33:49.848Z,98985.66
2022-08-30T14:35:24.754Z,98995.84
2022-08-30T14:36:59.477Z,99000.91
2022-08-30T14:38:32.908Z,98986.44
2022-08-30T14:40:07.023Z,99001.91
2022-08-30T14:41:44.250Z,98997.25
2022-08-30T14:43:17.642Z,98992.81
2022-08-30T14:44:56.645Z,98984.63
2022-08-30T14:46:30.285Z,98975.31
2022-08-30T14:48:11.495Z,98988.41
2022-08-30T14:49:46.059Z,98977.47
2022-08-30T14:51:23.194Z,98975.31
2022-08-30T14:52:58.161Z,98978.63
2022-08-30T14:55:03.716Z,98943.56
2022-08-30T14:56:41.721Z,98934.19
2022-08-30T14:58:21.162Z,98947.75
2022-08-30T14:59:57.664Z,98983.78
2022-08-30T15:01:37.332Z,98932.16
2022-08-30T15:03:15.762Z,98955.56
2022-08-30T15:04:49.570Z,98948.72
2022-08-30T15:06:26.513Z,98981.63
2022-08-30T15:07:59.920Z,98969.72
2022-08-30T15:09:34.227Z,98971.88
2022-08-30T15:11:12.150Z,98973.56
2022-08-30T15:12:48.058Z,98976.06
2022-08-30T15:14:21.447Z,98971.72
2022-08-30T15:15:55.269Z,98977.41
2022-08-30T15:17:28.603Z,98975.44
2022-08-30T15:19:02.800Z,98971.13
2022-08-30T15:20:36.219Z,98970.59
2022-08-30T15:22:10.973Z,98971.44
2022-08-30T15:23:44.844Z,98973.44
2022-08-30T15:25:18.082Z,98963.34
2022-08-30T15:26:51.551Z,98968.91
2022-08-30T15:28:24.290Z,98968.91
2022-08-30T15:29:57.650Z,98975.50
2022-08-30T15:31:32.304Z,98969.59
2022-08-30T15:33:06.106Z,98959.91
2022-08-30T15:34:39.661Z,98972.13
2022-08-30T15:36:13.560Z,98964.13
2022-08-30T15:37:48.207Z,98951.41
2022-08-30T15:39:21.657Z,98970.59
2022-08-30T15:40:55.838Z,98970.88
2022-08-30T15:42:29.120Z,98969.94
2022-08-30T15:44:02.366Z,98966.84
2022-08-30T15:45:35.735Z,98966.84
2022-08-30T15:47:09.193Z,98953.88
2022-08-30T15:48:45.513Z,98955.66
2022-08-30T15:50:19.168Z,98956.28
2022-08-30T15:51:54.229Z,98963.84
2022-08-30T15:53:29.387Z,98964.28
2022-08-30T15:55:02.872Z,98965.16
2022-08-30T15:56:36.379Z,98956.69
2022-08-30T15:58:09.696Z,98962.78
2022-08-30T15:59:43.838Z,98965.53
2022-08-30T16:01:18.241Z,98952.91
2022-08-30T16:02:53.286Z,98965.53
2022-08-30T16:04:26.613Z,98952.44
2022-08-30T16:06:00.117Z,98960.44
2022-08-30T16:07:39.905Z,98956.69
2022-08-30T16:09:15.462Z,98960.44
2022-08-30T16:10:49.339Z,98955.38
2022-08-30T16:12:25.461Z,98960.13
2022-08-30T16:13:59.859Z,98964.56
2022-08-30T16:15:33.615Z,98970.03
2022-08-30T16:17:07.893Z,98959.84
2022-08-30T16:18:41.433Z,98968.31
2022-08-30T16:20:14.974Z,98963.22
2022-08-30T16:21:48.229Z,98965.69
2022-08-30T16:23:21.853Z,98959.03
2022-08-30T16:24:56.828Z,98969.59
2022-08-30T16:26:31.866Z,98972.03
2022-08-30T16:28:05.544Z,98960.53
2022-08-30T16:29:39.170Z,98973.13
2022-08-30T16:31:13.041Z,98973.88
2022-08-30T16:32:49.362Z,98969.50
2022-08-30T16:34:22.842Z,98973.28
2022-08-30T16:35:57.255Z,98971.56
2022-08-30T16:37:31.254Z,98972.97
2022-08-30T16:39:05.776Z,98973.03
2022-08-30T16:40:43.201Z,98966.97
2022-08-30T16:42:20.976Z,98978.22
2022-08-30T16:43:56.152Z,98978.59
2022-08-30T16:45:34.262Z,98972.66
2022-08-30T16:47:12.771Z,98978.00
2022-08-30T16:48:47.568Z,98973.63
2022-08-30T16:50:23.427Z,98980.63
2022-08-30T16:51:56.683Z,98975.03
2022-08-30T16:53:30.002Z,98973.34
2022-08-30T16:55:03.290Z,98975.09
2022-08-30T16:56:39.336Z,98976.09
2022-08-30T16:58:15.866Z,98973.41
2022-08-30T16:59:52.632Z,98975.84
2022-08-30T17:01:25.996Z,98982.00
2022-08-30T17:03:00.293Z,98987.44
2022-08-30T17:04:33.625Z,98982.03
2022-08-30T17:06:05.949Z,98992.22
2022-08-30T17:07:40.438Z,98985.44
2022-08-30T17:09:15.087Z,98995.00
2022-08-30T17:10:49.899Z,98992.81
2022-08-30T17:12:24.830Z,98997.75
2022-08-30T17:13:59.513Z,98996.91
2022-08-30T17:15:35.300Z,99001.69
2022-08-30T17:17:09.319Z,98990.66
2022-08-30T17:18:42.741Z,99010.00
2022-08-30T17:20:16.605Z,98999.47
2022-08-30T17:21:50.254Z,99003.06
2022-08-30T17:23:24.239Z,99008.66
2022-08-30T17:24:57.471Z,99006.47
2022-08-30T17:26:31.170Z,99007.66
2022-08-30T17:28:06.949Z,99017.53
2022-08-30T17:29:40.452Z,99019.06
2022-08-30T17:31:14.941Z,99011.75
2022-08-30T17:32:49.275Z,99016.22
2022-08-30T17:34:23.990Z,99012.13
2022-08-30T17:36:00.137Z,99023.34
2022-08-30T17:37:33.458Z,99019.59
2022-08-30T17:39:11.065Z,99018.03
2022-08-30T17:40:45.314Z,99034.19
2022-08-30T17:42:18.647Z,99031.47
2022-08-30T17:43:53.265Z,99039.47
2022-08-30T17:45:26.464Z,99034.69
2022-08-30T17:47:02.415Z,99036.69
2022-08-30T17:48:34.775Z,99045.16
2022-08-30T17:50:10.233Z,99044.63
2022-08-30T17:51:45.833Z,99036.97
2022-08-30T17:53:21.668Z,99047.34
2022-08-30T17:54:56.371Z,99046.28
2022-08-30T17:58:23.741Z,99059.84
2022-08-30T17:59:58.803Z,99056.75
2022-08-30T18:01:32.384Z,99063.53
2022-08-30T18:03:05.972Z,99057.44
2022-08-30T18:04:39.768Z,99060.94
2022-08-30T18:06:15.688Z,99077.22
2022-08-30T18:07:49.809Z,99076.41
2022-08-30T18:09:23.904Z,99076.41
2022-08-30T18:10:57.568Z,99070.44
2022-08-30T18:12:30.036Z,99083.41
2022-08-30T18:14:08.161Z,99085.69
2022-08-30T18:15:45.717Z,99081.22
2022-08-30T18:17:24.150Z,99087.97
2022-08-30T18:18:57.665Z,99085.22
2022-08-30T18:20:32.486Z,99087.03
2022-08-30T18:22:05.876Z,99095.34
2022-08-30T18:23:40.106Z,99100.06
2022-08-30T18:25:13.170Z,99101.38
2022-08-30T18:26:46.695Z,99093.94
2022-08-30T18:28:19.951Z,99089.16
2022-08-30T18:29:54.072Z,99099.59
2022-08-30T18:31:27.688Z,99100.94
2022-08-30T18:33:01.662Z,99102.97
2022-08-30T18:34:36.106Z,99104.72
2022-08-30T18:36:09.854Z,99111.09
2022-08-30T18:37:43.823Z,99104.44
2022-08-30T18:39:17.851Z,99105.72
2022-08-30T18:40:58.975Z,99113.31
2022-08-30T18:42:32.867Z,99119.63
2022-08-30T18:44:26.549Z,99127.06
2022-08-30T18:46:03.735Z,99122.25
2022-08-30T18:47:38.731Z,99126.53
2022-08-30T18:49:16.352Z,99131.28
2022-08-30T18:50:50.403Z,99129.97
2022-08-30T18:52:25.289Z,99127.41
2022-08-30T18:53:59.336Z,99127.94
2022-08-30T18:55:33.853Z,99117.44
2022-08-30T18:57:07.706Z,99125.16
2022-08-30T18:58:44.631Z,99122.06
2022-08-30T19:00:18.777Z,99118.34
2022-08-30T19:01:52.452Z,99110.34
2022-08-30T19:03:27.142Z,99099.88
2022-08-30T19:05:07.468Z,99119.56
2022-08-30T19:06:43.307Z,99120.13